Calistoga, CA (94515)

2:36 AM PDT on August 28, 2015 (GMT -0700)
Calistoga | | Change Station
CLOSE
Current Station
Personal Weather Station
Location: Calistoga, CA
Elevation: 925 ft
Nearby Weather Stations

Elev 925 ft 38.58 °N, 122.63 °W | Updated 8 seconds ago

Clear
Clear
67.8 °F
Feels Like 67.8 °F
N
8.3
Wind Variable Wind from WSW

Today
High -- | Low -- °F
--% Chance of Precip.
Yesterday
High -- | Low -- °F
Precip. -- in
6:35 AM 7:46 PM
Waxing Gibbous, 97% visible
Pressure 29.92 in
Visibility 10.0 miles
Clouds Clear
Dew Point 48 °F
Humidity 49%
Rainfall 0.00 in
Snow Depth Not available.
UV 0 out of 12
Pollen 7.40 out of 12
Air Quality Not available.
Flu Activity Not available.
METAR KSTS 280853Z AUTO 17003KT 10SM CLR 17/11 A2994 RMK AO2 SLP130 T01720106 56004
Pressure 29.92 in
Visibility 10.0 miles
Clouds Clear
Dew Point 48 °F
Humidity 49%
Rainfall 0.00 in
Snow Depth Not available.
UV 0 out of 12
Pollen 7.40 out of 12
Air Quality Not available.
Flu Activity Not available.
METAR KSTS 280853Z AUTO 17003KT 10SM CLR 17/11 A2994 RMK AO2 SLP130 T01720106 56004

10-Day Weather Forecast

×

Almanac

Astronomy

Aug. 28, 2015 Rise Set
Actual Time
Civil Twilight
Nautical Twilight
Astronomical Twilight
Moon
Length of Visible Light
Length of Day
Tomorrow will be .
, % of the Moon is Illuminated

Today's Extremes

State Highs State Lows

Community

WunderPhotos

Upload Photos

1,850,352 photos uploaded!

WunderBlogs® & News

Nearby

Air Quality

  Air Quality AQ Index Pollutant
Not available.

Snow Depth

Station Depth Elevation

Earthquake Activity

City Distance Mag. Time & Date
Minimum magnitude displayed is 2.5.

Coastal Water Temperatures

Place Temperature

Stations

Nearby Weather Stations

Station Location Temp. Windchill Dew Point Humidity Wind Precip. Elev Updated Type